MV Sukran S — TCKB — position and weather

sailwx.info

Track history (hours):
 
Tides and Currents Weather Stations Pressure Air Temp Water Temp Dewpoint Dewpoint Depression Visibility Wind Speed Wind Dir Waves Ship Positions

MV Sukran S

Last reported at 2014-Sep-29 10:05 UTC. Time now 2014-Oct-01 00:10 UTC.
Position N 40°25' E 029°05'.

Length 108 m; draft 6.8 m.

Type: Cargo ship. MMSI: 271000056.

Date/timePositionNaut miles runAvg speedWind from/ knotsBaromVisibWave heightAir tempDewpointWater temp
2014-Sep-29 10:05N 40°25' E 029°05'0 0.0
2014-Sep-29 09:28N 40°25' E 029°05'0 0.0
2014-Sep-29 08:28N 40°25' E 029°05'0 0.0
2014-Sep-29 07:09N 40°25' E 029°05'0 0.0
2014-Sep-29 06:33N 40°25' E 029°05'0 0.0
2014-Sep-29 05:30N 40°25' E 029°05'0 0.0
2014-Sep-29 04:29N 40°25' E 029°05'0 0.0
2014-Sep-29 03:20N 40°25' E 029°05'0 0.0
2014-Sep-29 02:19N 40°25' E 029°05'0 0.0
2014-Sep-29 01:19N 40°25' E 029°05'0 0.0
2014-Sep-28 22:24N 40°25' E 029°05'0 0.0
2014-Sep-28 21:29N 40°25' E 029°05'0 0.0
2014-Sep-28 20:26N 40°25' E 029°05'0 0.0
2014-Sep-28 19:29N 40°25' E 029°05'0 0.0
2014-Sep-28 18:23N 40°25' E 029°05'0 0.0
2014-Sep-28 17:24N 40°25' E 029°05'0 0.0
2014-Sep-28 16:18N 40°25' E 029°05'0 0.0
2014-Sep-28 15:29N 40°25' E 029°05'0 0.0
2014-Sep-28 14:06N 40°25' E 029°05'0 0.0
2014-Sep-28 13:14N 40°25' E 029°05'0 0.0
2014-Sep-28 12:30N 40°25' E 029°05'0 0.0
2014-Sep-28 11:30N 40°25' E 029°05'0 0.0
2014-Sep-28 10:25N 40°25' E 029°05'0 0.0
2014-Sep-28 09:26N 40°25' E 029°05'0 0.0
2014-Sep-27 11:31N 40°25' E 029°05'0 0.0
2014-Sep-27 10:31N 40°25' E 029°05'0 0.0
2014-Sep-27 09:25N 40°25' E 029°05'0 0.0
2014-Sep-27 08:18N 40°25' E 029°05'0 0.0
2014-Sep-27 07:33N 40°25' E 029°05'0 0.0
2014-Sep-27 06:09N 40°25' E 029°05'0 0.0
2014-Sep-27 05:33N 40°25' E 029°05'0 0.0
2014-Sep-27 04:33N 40°25' E 029°05'0 0.0
2014-Sep-27 03:32N 40°25' E 029°05'0 0.0
2014-Sep-27 02:32N 40°25' E 029°05'0 0.0
2014-Sep-27 00:33N 40°25' E 029°05'0 0.0
2014-Sep-26 23:30N 40°25' E 029°05'0 0.0
2014-Sep-26 22:34N 40°25' E 029°05'0 0.0
2014-Sep-26 18:33N 40°25' E 029°05'0 0.4
2014-Sep-26 17:33N 40°25' E 029°04'  
2014-Sep-21 06:27N 40°26' E 029°04'16 7.2
2014-Sep-21 04:15N 40°33' E 028°45'6 9.2
2014-Sep-21 03:33N 40°39' E 028°48'10 9.6
2014-Sep-21 02:31N 40°48' E 028°54'9 9.1
2014-Sep-21 01:31N 40°57' E 028°56'1 0.8
2014-Sep-21 00:10N 40°58' E 028°55'0 0.0
2014-Sep-20 23:27N 40°58' E 028°55'0 0.0
2014-Sep-20 22:33N 40°58' E 028°55'0 0.0
2014-Sep-20 21:31N 40°58' E 028°55'3 3.2
2014-Sep-20 20:33N 40°59' E 028°59'  
Track history (hours):
 
Tides and Currents Weather Stations Pressure Air Temp Water Temp Dewpoint Dewpoint Depression Visibility Wind Speed Wind Dir Waves Ship Positions

MV Sukran S

Last reported at 2014-Sep-29 10:05 UTC. Time now 2014-Oct-01 00:10 UTC.
Position N 40°25' E 029°05'.

Length 108 m; draft 6.8 m.

Type: Cargo ship. MMSI: 271000056.

Date/timePositionNaut miles runAvg speedWind from/ knotsBaromVisibWave heightAir tempDewpointWater temp
2014-Sep-29 10:05N 40°25' E 029°05'0 0.0
2014-Sep-29 09:28N 40°25' E 029°05'0 0.0
2014-Sep-29 08:28N 40°25' E 029°05'0 0.0
2014-Sep-29 07:09N 40°25' E 029°05'0 0.0
2014-Sep-29 06:33N 40°25' E 029°05'0 0.0
2014-Sep-29 05:30N 40°25' E 029°05'0 0.0
2014-Sep-29 04:29N 40°25' E 029°05'0 0.0
2014-Sep-29 03:20N 40°25' E 029°05'0 0.0
2014-Sep-29 02:19N 40°25' E 029°05'0 0.0
2014-Sep-29 01:19N 40°25' E 029°05'0 0.0
2014-Sep-28 22:24N 40°25' E 029°05'0 0.0
2014-Sep-28 21:29N 40°25' E 029°05'0 0.0
2014-Sep-28 20:26N 40°25' E 029°05'0 0.0
2014-Sep-28 19:29N 40°25' E 029°05'0 0.0
2014-Sep-28 18:23N 40°25' E 029°05'0 0.0
2014-Sep-28 17:24N 40°25' E 029°05'0 0.0
2014-Sep-28 16:18N 40°25' E 029°05'0 0.0
2014-Sep-28 15:29N 40°25' E 029°05'0 0.0
2014-Sep-28 14:06N 40°25' E 029°05'0 0.0
2014-Sep-28 13:14N 40°25' E 029°05'0 0.0
2014-Sep-28 12:30N 40°25' E 029°05'0 0.0
2014-Sep-28 11:30N 40°25' E 029°05'0 0.0
2014-Sep-28 10:25N 40°25' E 029°05'0 0.0
2014-Sep-28 09:26N 40°25' E 029°05'0 0.0
2014-Sep-27 11:31N 40°25' E 029°05'0 0.0
2014-Sep-27 10:31N 40°25' E 029°05'0 0.0
2014-Sep-27 09:25N 40°25' E 029°05'0 0.0
2014-Sep-27 08:18N 40°25' E 029°05'0 0.0
2014-Sep-27 07:33N 40°25' E 029°05'0 0.0
2014-Sep-27 06:09N 40°25' E 029°05'0 0.0
2014-Sep-27 05:33N 40°25' E 029°05'0 0.0
2014-Sep-27 04:33N 40°25' E 029°05'0 0.0
2014-Sep-27 03:32N 40°25' E 029°05'0 0.0
2014-Sep-27 02:32N 40°25' E 029°05'0 0.0
2014-Sep-27 00:33N 40°25' E 029°05'0 0.0
2014-Sep-26 23:30N 40°25' E 029°05'0 0.0
2014-Sep-26 22:34N 40°25' E 029°05'0 0.0
2014-Sep-26 18:33N 40°25' E 029°05'0 0.4
2014-Sep-26 17:33N 40°25' E 029°04'  
2014-Sep-21 06:27N 40°26' E 029°04'16 7.2
2014-Sep-21 04:15N 40°33' E 028°45'6 9.2
2014-Sep-21 03:33N 40°39' E 028°48'10 9.6
2014-Sep-21 02:31N 40°48' E 028°54'9 9.1
2014-Sep-21 01:31N 40°57' E 028°56'1 0.8
2014-Sep-21 00:10N 40°58' E 028°55'0 0.0
2014-Sep-20 23:27N 40°58' E 028°55'0 0.0
2014-Sep-20 22:33N 40°58' E 028°55'0 0.0
2014-Sep-20 21:31N 40°58' E 028°55'3 3.2
2014-Sep-20 20:33N 40°59' E 028°59'  

Dump ship's entire track history